sensor_id;sensor_type;location;lat;lon;timestamp;temperature;humidity
65036;DHT22;51603;49.300;8.880;2024-01-15T00:00:45;-2.80;99.90
65036;DHT22;51603;49.300;8.880;2024-01-15T00:03:10;-2.70;99.90
65036;DHT22;51603;49.300;8.880;2024-01-15T00:05:36;-2.70;99.90
65036;DHT22;51603;49.300;8.880;2024-01-15T00:08:02;-2.70;99.90
65036;DHT22;51603;49.300;8.880;2024-01-15T00:10:27;-2.70;99.90
65036;DHT22;51603;49.300;8.880;2024-01-15T00:12:53;-2.70;99.90
65036;DHT22;51603;49.300;8.880;2024-01-15T00:15:18;-2.70;99.90
65036;DHT22;51603;49.300;8.880;2024-01-15T00:17:47;-2.70;99.90
65036;DHT22;51603;49.300;8.880;2024-01-15T00:20:13;-2.70;99.90
65036;DHT22;51603;49.300;8.880;2024-01-15T00:22:39;-2.60;99.90
65036;DHT22;51603;49.300;8.880;2024-01-15T00:25:05;-2.60;99.90
65036;DHT22;51603;49.300;8.880;2024-01-15T00:27:30;-2.60;99.90
65036;DHT22;51603;49.300;8.880;2024-01-15T00:29:56;-2.60;99.90
65036;DHT22;51603;49.300;8.880;2024-01-15T00:32:21;-2.60;99.90
65036;DHT22;51603;49.300;8.880;2024-01-15T00:34:47;-2.60;99.90
65036;DHT22;51603;49.300;8.880;2024-01-15T00:37:13;-2.60;99.90
65036;DHT22;51603;49.300;8.880;2024-01-15T00:39:39;-2.60;99.90
65036;DHT22;51603;49.300;8.880;2024-01-15T00:42:04;-2.60;99.90
65036;DHT22;51603;49.300;8.880;2024-01-15T00:44:30;-2.60;99.90
65036;DHT22;51603;49.300;8.880;2024-01-15T00:46:56;-2.50;99.90
65036;DHT22;51603;49.300;8.880;2024-01-15T00:49:21;-2.50;99.90
65036;DHT22;51603;49.300;8.880;2024-01-15T00:51:49;-2.50;99.90
65036;DHT22;51603;49.300;8.880;2024-01-15T00:54:15;-2.50;99.90
65036;DHT22;51603;49.300;8.880;2024-01-15T00:56:40;-2.50;99.90
65036;DHT22;51603;49.300;8.880;2024-01-15T00:59:09;-2.50;99.90
65036;DHT22;51603;49.300;8.880;2024-01-15T01:01:36;-2.50;99.90
65036;DHT22;51603;49.300;8.880;2024-01-15T01:04:03;-2.50;99.90
65036;DHT22;51603;49.300;8.880;2024-01-15T01:06:29;-2.50;99.90
65036;DHT22;51603;49.300;8.880;2024-01-15T01:08:54;-2.40;99.90
65036;DHT22;51603;49.300;8.880;2024-01-15T01:11:23;-2.40;99.90
65036;DHT22;51603;49.300;8.880;2024-01-15T01:13:48;-2.40;99.90
65036;DHT22;51603;49.300;8.880;2024-01-15T01:16:14;-2.40;99.90
65036;DHT22;51603;49.300;8.880;2024-01-15T01:18:40;-2.40;99.90
65036;DHT22;51603;49.300;8.880;2024-01-15T01:21:05;-2.40;99.90
65036;DHT22;51603;49.300;8.880;2024-01-15T01:23:31;-2.40;99.90
65036;DHT22;51603;49.300;8.880;2024-01-15T01:25:56;-2.40;99.90
65036;DHT22;51603;49.300;8.880;2024-01-15T01:28:22;-2.40;99.90
65036;DHT22;51603;49.300;8.880;2024-01-15T01:30:50;-2.40;99.90
65036;DHT22;51603;49.300;8.880;2024-01-15T01:33:15;-2.40;99.90
65036;DHT22;51603;49.300;8.880;2024-01-15T01:35:41;-2.40;99.90
65036;DHT22;51603;49.300;8.880;2024-01-15T01:38:07;-2.30;99.90
65036;DHT22;51603;49.300;8.880;2024-01-15T01:40:32;-2.30;99.90
65036;DHT22;51603;49.300;8.880;2024-01-15T01:42:58;-2.30;99.90
65036;DHT22;51603;49.300;8.880;2024-01-15T01:45:23;-2.30;99.90
65036;DHT22;51603;49.300;8.880;2024-01-15T01:47:49;-2.30;99.90
65036;DHT22;51603;49.300;8.880;2024-01-15T01:50:15;-2.30;99.90
65036;DHT22;51603;49.300;8.880;2024-01-15T01:53:09;-2.30;99.90
65036;DHT22;51603;49.300;8.880;2024-01-15T01:59:30;-2.30;99.90
65036;DHT22;51603;49.300;8.880;2024-01-15T02:01:56;-2.30;99.90
65036;DHT22;51603;49.300;8.880;2024-01-15T02:04:25;-2.30;99.90
65036;DHT22;51603;49.300;8.880;2024-01-15T02:06:54;-2.30;99.90
65036;DHT22;51603;49.300;8.880;2024-01-15T02:09:23;-2.30;99.90
65036;DHT22;51603;49.300;8.880;2024-01-15T02:11:52;-2.40;99.90
65036;DHT22;51603;49.300;8.880;2024-01-15T02:14:31;-2.40;99.90
65036;DHT22;51603;49.300;8.880;2024-01-15T02:17:24;-2.30;99.90
65036;DHT22;51603;49.300;8.880;2024-01-15T02:26:27;-2.30;99.90
65036;DHT22;51603;49.300;8.880;2024-01-15T02:28:52;-2.30;99.90
65036;DHT22;51603;49.300;8.880;2024-01-15T02:31:18;-2.30;99.90
65036;DHT22;51603;49.300;8.880;2024-01-15T02:33:44;-2.30;99.90
65036;DHT22;51603;49.300;8.880;2024-01-15T02:36:11;-2.30;99.90
65036;DHT22;51603;49.300;8.880;2024-01-15T02:38:37;-2.30;99.90
65036;DHT22;51603;49.300;8.880;2024-01-15T02:41:03;-2.30;99.90
65036;DHT22;51603;49.300;8.880;2024-01-15T02:43:35;-2.30;99.90
65036;DHT22;51603;49.300;8.880;2024-01-15T02:46:01;-2.30;99.90
65036;DHT22;51603;49.300;8.880;2024-01-15T02:48:30;-2.30;99.90
65036;DHT22;51603;49.300;8.880;2024-01-15T02:50:55;-2.30;99.90
65036;DHT22;51603;49.300;8.880;2024-01-15T02:53:33;-2.40;99.90
65036;DHT22;51603;49.300;8.880;2024-01-15T02:55:59;-2.40;99.90
65036;DHT22;51603;49.300;8.880;2024-01-15T02:58:25;-2.40;99.90
65036;DHT22;51603;49.300;8.880;2024-01-15T03:00:50;-2.30;99.90
65036;DHT22;51603;49.300;8.880;2024-01-15T03:03:16;-2.30;99.90
65036;DHT22;51603;49.300;8.880;2024-01-15T03:05:42;-2.30;99.90
65036;DHT22;51603;49.300;8.880;2024-01-15T03:08:07;-2.30;99.90
65036;DHT22;51603;49.300;8.880;2024-01-15T03:10:33;-2.40;99.90
65036;DHT22;51603;49.300;8.880;2024-01-15T03:13:01;-2.40;99.90
65036;DHT22;51603;49.300;8.880;2024-01-15T03:15:27;-2.30;99.90
65036;DHT22;51603;49.300;8.880;2024-01-15T03:17:53;-2.40;99.90
65036;DHT22;51603;49.300;8.880;2024-01-15T03:20:18;-2.30;99.90
65036;DHT22;51603;49.300;8.880;2024-01-15T03:22:44;-2.30;99.90
65036;DHT22;51603;49.300;8.880;2024-01-15T03:25:09;-2.40;99.90
65036;DHT22;51603;49.300;8.880;2024-01-15T03:27:35;-2.30;99.90
65036;DHT22;51603;49.300;8.880;2024-01-15T03:30:08;-2.30;99.90
65036;DHT22;51603;49.300;8.880;2024-01-15T03:32:34;-2.30;99.90
65036;DHT22;51603;49.300;8.880;2024-01-15T03:35:00;-2.30;99.90
65036;DHT22;51603;49.300;8.880;2024-01-15T03:37:25;-2.30;99.90
65036;DHT22;51603;49.300;8.880;2024-01-15T03:39:51;-2.30;99.90
65036;DHT22;51603;49.300;8.880;2024-01-15T03:42:16;-2.30;99.90
65036;DHT22;51603;49.300;8.880;2024-01-15T03:44:42;-2.30;99.90
65036;DHT22;51603;49.300;8.880;2024-01-15T03:47:08;-2.30;99.90
65036;DHT22;51603;49.300;8.880;2024-01-15T03:49:33;-2.30;99.90
65036;DHT22;51603;49.300;8.880;2024-01-15T03:51:59;-2.30;99.90
65036;DHT22;51603;49.300;8.880;2024-01-15T03:54:24;-2.30;99.90
65036;DHT22;51603;49.300;8.880;2024-01-15T03:56:50;-2.30;99.90
65036;DHT22;51603;49.300;8.880;2024-01-15T03:59:16;-2.20;99.90
65036;DHT22;51603;49.300;8.880;2024-01-15T04:01:48;-2.30;99.90
65036;DHT22;51603;49.300;8.880;2024-01-15T04:04:15;-2.30;99.90
65036;DHT22;51603;49.300;8.880;2024-01-15T04:06:40;-2.30;99.90
65036;DHT22;51603;49.300;8.880;2024-01-15T04:09:06;-2.30;99.90
65036;DHT22;51603;49.300;8.880;2024-01-15T04:11:32;-2.30;99.90
65036;DHT22;51603;49.300;8.880;2024-01-15T04:13:57;-2.30;99.90
65036;DHT22;51603;49.300;8.880;2024-01-15T04:16:23;-2.30;99.90
65036;DHT22;51603;49.300;8.880;2024-01-15T04:18:48;-2.30;99.90
65036;DHT22;51603;49.300;8.880;2024-01-15T04:21:14;-2.30;99.90
65036;DHT22;51603;49.300;8.880;2024-01-15T04:23:39;-2.20;99.90
65036;DHT22;51603;49.300;8.880;2024-01-15T04:26:05;-2.30;99.90
65036;DHT22;51603;49.300;8.880;2024-01-15T04:28:30;-2.20;99.90
65036;DHT22;51603;49.300;8.880;2024-01-15T04:30:56;-2.20;99.90
65036;DHT22;51603;49.300;8.880;2024-01-15T04:33:21;-2.20;99.90
65036;DHT22;51603;49.300;8.880;2024-01-15T04:35:47;-2.20;99.90
65036;DHT22;51603;49.300;8.880;2024-01-15T04:38:12;-2.10;99.90
65036;DHT22;51603;49.300;8.880;2024-01-15T04:40:38;-2.10;99.90
65036;DHT22;51603;49.300;8.880;2024-01-15T04:43:04;-2.20;99.90
65036;DHT22;51603;49.300;8.880;2024-01-15T04:45:29;-2.20;99.90
65036;DHT22;51603;49.300;8.880;2024-01-15T04:47:55;-2.10;99.90
65036;DHT22;51603;49.300;8.880;2024-01-15T04:50:22;-2.20;99.90
65036;DHT22;51603;49.300;8.880;2024-01-15T04:52:48;-2.20;99.90
65036;DHT22;51603;49.300;8.880;2024-01-15T04:55:13;-2.10;99.90
65036;DHT22;51603;49.300;8.880;2024-01-15T04:57:39;-2.10;99.90
65036;DHT22;51603;49.300;8.880;2024-01-15T05:00:05;-2.10;99.90
65036;DHT22;51603;49.300;8.880;2024-01-15T05:02:31;-2.10;99.90
65036;DHT22;51603;49.300;8.880;2024-01-15T05:04:56;-2.10;99.90
65036;DHT22;51603;49.300;8.880;2024-01-15T05:07:22;-2.10;99.90
65036;DHT22;51603;49.300;8.880;2024-01-15T05:09:47;-2.10;99.90
65036;DHT22;51603;49.300;8.880;2024-01-15T05:12:13;-2.10;99.90
65036;DHT22;51603;49.300;8.880;2024-01-15T05:14:41;-2.10;99.90
65036;DHT22;51603;49.300;8.880;2024-01-15T05:17:07;-2.20;99.90
65036;DHT22;51603;49.300;8.880;2024-01-15T05:19:32;-2.10;99.90
65036;DHT22;51603;49.300;8.880;2024-01-15T05:21:58;-2.10;99.90
65036;DHT22;51603;49.300;8.880;2024-01-15T05:24:24;-2.10;99.90
65036;DHT22;51603;49.300;8.880;2024-01-15T05:26:52;-2.10;99.90
65036;DHT22;51603;49.300;8.880;2024-01-15T05:29:17;-2.10;99.90
65036;DHT22;51603;49.300;8.880;2024-01-15T05:31:43;-2.10;99.90
65036;DHT22;51603;49.300;8.880;2024-01-15T05:34:09;-2.10;99.90
65036;DHT22;51603;49.300;8.880;2024-01-15T05:36:34;-2.10;99.90
65036;DHT22;51603;49.300;8.880;2024-01-15T05:39:00;-2.10;99.90
65036;DHT22;51603;49.300;8.880;2024-01-15T05:41:26;-2.00;99.90
65036;DHT22;51603;49.300;8.880;2024-01-15T05:43:52;-2.00;99.90
65036;DHT22;51603;49.300;8.880;2024-01-15T05:46:17;-2.00;99.90
65036;DHT22;51603;49.300;8.880;2024-01-15T05:48:43;-2.00;99.90
65036;DHT22;51603;49.300;8.880;2024-01-15T05:51:08;-2.00;99.90
65036;DHT22;51603;49.300;8.880;2024-01-15T05:53:34;-2.00;99.90
65036;DHT22;51603;49.300;8.880;2024-01-15T05:55:59;-2.00;99.90
65036;DHT22;51603;49.300;8.880;2024-01-15T05:58:26;-2.00;99.90
65036;DHT22;51603;49.300;8.880;2024-01-15T06:00:52;-1.90;99.90
65036;DHT22;51603;49.300;8.880;2024-01-15T06:03:17;-1.90;99.90
65036;DHT22;51603;49.300;8.880;2024-01-15T06:05:43;-1.90;99.90
65036;DHT22;51603;49.300;8.880;2024-01-15T06:08:09;-1.90;99.90
65036;DHT22;51603;49.300;8.880;2024-01-15T06:10:34;-1.90;99.90
65036;DHT22;51603;49.300;8.880;2024-01-15T06:13:01;-1.90;99.90
65036;DHT22;51603;49.300;8.880;2024-01-15T06:15:26;-1.80;99.90
65036;DHT22;51603;49.300;8.880;2024-01-15T06:17:52;-1.80;99.90
65036;DHT22;51603;49.300;8.880;2024-01-15T06:20:17;-1.80;99.90
65036;DHT22;51603;49.300;8.880;2024-01-15T06:22:43;-1.80;99.90
65036;DHT22;51603;49.300;8.880;2024-01-15T06:25:13;-1.80;99.90
65036;DHT22;51603;49.300;8.880;2024-01-15T06:27:39;-1.80;99.90
65036;DHT22;51603;49.300;8.880;2024-01-15T06:30:05;-1.80;99.90
65036;DHT22;51603;49.300;8.880;2024-01-15T06:32:31;-1.80;99.90
65036;DHT22;51603;49.300;8.880;2024-01-15T06:34:56;-1.80;99.90
65036;DHT22;51603;49.300;8.880;2024-01-15T06:37:22;-1.80;99.90
65036;DHT22;51603;49.300;8.880;2024-01-15T06:39:47;-1.70;99.90
65036;DHT22;51603;49.300;8.880;2024-01-15T06:42:13;-1.70;99.90
65036;DHT22;51603;49.300;8.880;2024-01-15T06:44:38;-1.70;99.90
65036;DHT22;51603;49.300;8.880;2024-01-15T06:47:05;-1.70;99.90
65036;DHT22;51603;49.300;8.880;2024-01-15T06:49:30;-1.70;99.90
65036;DHT22;51603;49.300;8.880;2024-01-15T06:51:56;-1.70;99.90
65036;DHT22;51603;49.300;8.880;2024-01-15T06:54:21;-1.70;99.90
65036;DHT22;51603;49.300;8.880;2024-01-15T06:56:47;-1.70;99.90
65036;DHT22;51603;49.300;8.880;2024-01-15T06:59:13;-1.70;99.90
65036;DHT22;51603;49.300;8.880;2024-01-15T07:01:38;-1.70;99.90
65036;DHT22;51603;49.300;8.880;2024-01-15T07:04:04;-1.70;99.90
65036;DHT22;51603;49.300;8.880;2024-01-15T07:06:29;-1.60;99.90
65036;DHT22;51603;49.300;8.880;2024-01-15T07:08:56;-1.60;99.90
65036;DHT22;51603;49.300;8.880;2024-01-15T07:11:21;-1.60;99.90
65036;DHT22;51603;49.300;8.880;2024-01-15T07:13:47;-1.60;99.90
65036;DHT22;51603;49.300;8.880;2024-01-15T07:16:12;-1.60;99.90
65036;DHT22;51603;49.300;8.880;2024-01-15T07:18:38;-1.60;99.90
65036;DHT22;51603;49.300;8.880;2024-01-15T07:21:04;-1.60;99.90
65036;DHT22;51603;49.300;8.880;2024-01-15T07:23:31;-1.50;99.90
65036;DHT22;51603;49.300;8.880;2024-01-15T07:25:57;-1.50;99.90
65036;DHT22;51603;49.300;8.880;2024-01-15T07:28:22;-1.50;99.90
65036;DHT22;51603;49.300;8.880;2024-01-15T07:30:48;-1.50;99.90
65036;DHT22;51603;49.300;8.880;2024-01-15T07:33:13;-1.40;99.90
65036;DHT22;51603;49.300;8.880;2024-01-15T07:35:39;-1.40;99.90
65036;DHT22;51603;49.300;8.880;2024-01-15T07:38:05;-1.40;99.90
65036;DHT22;51603;49.300;8.880;2024-01-15T07:40:30;-1.40;99.90
65036;DHT22;51603;49.300;8.880;2024-01-15T07:42:56;-1.30;99.90
65036;DHT22;51603;49.300;8.880;2024-01-15T07:45:21;-1.30;99.90
65036;DHT22;51603;49.300;8.880;2024-01-15T07:47:47;-1.30;99.90
65036;DHT22;51603;49.300;8.880;2024-01-15T07:50:13;-1.30;99.90
65036;DHT22;51603;49.300;8.880;2024-01-15T07:52:40;-1.30;99.90
65036;DHT22;51603;49.300;8.880;2024-01-15T07:55:07;-1.30;99.90
65036;DHT22;51603;49.300;8.880;2024-01-15T07:57:33;-1.30;99.90
65036;DHT22;51603;49.300;8.880;2024-01-15T07:59:58;-1.30;99.90
65036;DHT22;51603;49.300;8.880;2024-01-15T08:02:24;-1.30;99.90
65036;DHT22;51603;49.300;8.880;2024-01-15T08:04:50;-1.30;99.90
65036;DHT22;51603;49.300;8.880;2024-01-15T08:07:15;-1.30;99.90
65036;DHT22;51603;49.300;8.880;2024-01-15T08:09:41;-1.30;99.90
65036;DHT22;51603;49.300;8.880;2024-01-15T08:12:07;-1.30;99.90
65036;DHT22;51603;49.300;8.880;2024-01-15T08:14:33;-1.30;99.90
65036;DHT22;51603;49.300;8.880;2024-01-15T08:16:58;-1.30;99.90
65036;DHT22;51603;49.300;8.880;2024-01-15T08:19:24;-1.30;99.90
65036;DHT22;51603;49.300;8.880;2024-01-15T08:21:50;-1.30;99.90
65036;DHT22;51603;49.300;8.880;2024-01-15T08:24:16;-1.30;99.90
65036;DHT22;51603;49.300;8.880;2024-01-15T08:26:42;-1.20;99.90
65036;DHT22;51603;49.300;8.880;2024-01-15T08:29:08;-1.20;99.90
65036;DHT22;51603;49.300;8.880;2024-01-15T08:31:33;-1.20;99.90
65036;DHT22;51603;49.300;8.880;2024-01-15T08:33:59;-1.10;99.90
65036;DHT22;51603;49.300;8.880;2024-01-15T08:36:26;-1.10;99.90
65036;DHT22;51603;49.300;8.880;2024-01-15T08:38:52;-1.10;99.90
65036;DHT22;51603;49.300;8.880;2024-01-15T08:41:18;-1.10;99.90
65036;DHT22;51603;49.300;8.880;2024-01-15T08:43:43;-1.00;99.90
65036;DHT22;51603;49.300;8.880;2024-01-15T08:46:09;-1.00;99.90
65036;DHT22;51603;49.300;8.880;2024-01-15T08:48:34;-0.90;99.90
65036;DHT22;51603;49.300;8.880;2024-01-15T08:51:00;-1.00;99.90
65036;DHT22;51603;49.300;8.880;2024-01-15T08:53:25;-0.90;99.90
65036;DHT22;51603;49.300;8.880;2024-01-15T08:55:51;-0.90;99.90
65036;DHT22;51603;49.300;8.880;2024-01-15T08:58:16;-0.90;99.90
65036;DHT22;51603;49.300;8.880;2024-01-15T09:00:43;-0.80;99.90
65036;DHT22;51603;49.300;8.880;2024-01-15T09:03:08;-0.80;99.90
65036;DHT22;51603;49.300;8.880;2024-01-15T09:05:34;-0.90;99.90
65036;DHT22;51603;49.300;8.880;2024-01-15T09:08:00;-0.80;99.90
65036;DHT22;51603;49.300;8.880;2024-01-15T09:10:25;-0.80;99.90
65036;DHT22;51603;49.300;8.880;2024-01-15T09:12:51;-0.80;99.90
65036;DHT22;51603;49.300;8.880;2024-01-15T09:15:17;-0.80;99.90
65036;DHT22;51603;49.300;8.880;2024-01-15T09:17:42;-0.80;99.90
65036;DHT22;51603;49.300;8.880;2024-01-15T09:20:09;-0.80;99.90
65036;DHT22;51603;49.300;8.880;2024-01-15T09:22:35;-0.80;99.90
65036;DHT22;51603;49.300;8.880;2024-01-15T09:25:03;-0.70;99.90
65036;DHT22;51603;49.300;8.880;2024-01-15T09:27:29;-0.80;99.90
65036;DHT22;51603;49.300;8.880;2024-01-15T09:29:55;-0.80;99.90
65036;DHT22;51603;49.300;8.880;2024-01-15T09:32:20;-0.80;99.90
65036;DHT22;51603;49.300;8.880;2024-01-15T09:34:46;-0.80;99.90
65036;DHT22;51603;49.300;8.880;2024-01-15T09:37:13;-0.80;99.90
65036;DHT22;51603;49.300;8.880;2024-01-15T09:39:39;-0.80;99.90
65036;DHT22;51603;49.300;8.880;2024-01-15T09:42:05;-0.80;99.90
65036;DHT22;51603;49.300;8.880;2024-01-15T09:44:31;-0.70;99.90
65036;DHT22;51603;49.300;8.880;2024-01-15T09:46:57;-0.70;99.90
65036;DHT22;51603;49.300;8.880;2024-01-15T09:49:23;-0.80;99.90
65036;DHT22;51603;49.300;8.880;2024-01-15T09:51:49;-0.80;99.90
65036;DHT22;51603;49.300;8.880;2024-01-15T09:54:15;-0.80;99.90
65036;DHT22;51603;49.300;8.880;2024-01-15T09:56:45;-0.80;99.90
65036;DHT22;51603;49.300;8.880;2024-01-15T09:59:13;-0.80;99.90
65036;DHT22;51603;49.300;8.880;2024-01-15T10:01:40;-0.90;99.90
65036;DHT22;51603;49.300;8.880;2024-01-15T10:04:06;-0.90;99.90
65036;DHT22;51603;49.300;8.880;2024-01-15T10:06:32;-0.90;99.90
65036;DHT22;51603;49.300;8.880;2024-01-15T10:08:58;-0.90;99.90
65036;DHT22;51603;49.300;8.880;2024-01-15T10:11:24;-0.90;99.90
65036;DHT22;51603;49.300;8.880;2024-01-15T10:13:50;-0.80;99.90
65036;DHT22;51603;49.300;8.880;2024-01-15T10:16:19;-0.80;99.90
65036;DHT22;51603;49.300;8.880;2024-01-15T10:18:44;-0.80;99.90
65036;DHT22;51603;49.300;8.880;2024-01-15T10:21:10;-0.70;99.90
65036;DHT22;51603;49.300;8.880;2024-01-15T10:23:35;-0.70;99.90
65036;DHT22;51603;49.300;8.880;2024-01-15T10:26:02;-0.60;99.90
65036;DHT22;51603;49.300;8.880;2024-01-15T10:28:28;-0.70;99.90
65036;DHT22;51603;49.300;8.880;2024-01-15T10:30:57;-0.60;99.90
65036;DHT22;51603;49.300;8.880;2024-01-15T10:33:23;-0.60;99.90
65036;DHT22;51603;49.300;8.880;2024-01-15T10:35:54;-0.50;99.90
65036;DHT22;51603;49.300;8.880;2024-01-15T10:38:22;-0.60;99.90
65036;DHT22;51603;49.300;8.880;2024-01-15T10:40:50;-0.50;99.90
65036;DHT22;51603;49.300;8.880;2024-01-15T10:43:16;-0.50;99.90
65036;DHT22;51603;49.300;8.880;2024-01-15T10:45:47;-0.50;99.90
65036;DHT22;51603;49.300;8.880;2024-01-15T10:48:14;-0.50;99.90
65036;DHT22;51603;49.300;8.880;2024-01-15T10:50:39;-0.50;99.90
65036;DHT22;51603;49.300;8.880;2024-01-15T10:53:05;-0.50;99.90
65036;DHT22;51603;49.300;8.880;2024-01-15T10:55:35;-0.50;99.90
65036;DHT22;51603;49.300;8.880;2024-01-15T10:58:03;-0.50;99.90
65036;DHT22;51603;49.300;8.880;2024-01-15T11:00:29;-0.60;99.90
65036;DHT22;51603;49.300;8.880;2024-01-15T11:02:55;-0.50;99.90
65036;DHT22;51603;49.300;8.880;2024-01-15T11:05:22;-0.50;99.90
65036;DHT22;51603;49.300;8.880;2024-01-15T11:07:50;-0.50;99.90
65036;DHT22;51603;49.300;8.880;2024-01-15T11:10:38;-0.40;99.90
65036;DHT22;51603;49.300;8.880;2024-01-15T11:13:05;-0.40;99.90
65036;DHT22;51603;49.300;8.880;2024-01-15T11:18:21;-0.30;99.90
65036;DHT22;51603;49.300;8.880;2024-01-15T11:23:45;-0.30;99.90
65036;DHT22;51603;49.300;8.880;2024-01-15T11:26:33;-0.30;99.90
65036;DHT22;51603;49.300;8.880;2024-01-15T11:29:00;-0.40;99.90
65036;DHT22;51603;49.300;8.880;2024-01-15T11:31:56;-0.30;99.90
65036;DHT22;51603;49.300;8.880;2024-01-15T11:34:16;-0.40;99.90
65036;DHT22;51603;49.300;8.880;2024-01-15T11:44:23;-0.40;99.90
65036;DHT22;51603;49.300;8.880;2024-01-15T11:46:59;-0.40;99.90
65036;DHT22;51603;49.300;8.880;2024-01-15T11:52:05;-0.40;99.90
65036;DHT22;51603;49.300;8.880;2024-01-15T11:54:33;-0.40;99.90
65036;DHT22;51603;49.300;8.880;2024-01-15T11:57:04;-0.40;99.90
65036;DHT22;51603;49.300;8.880;2024-01-15T11:59:32;-0.50;99.90
65036;DHT22;51603;49.300;8.880;2024-01-15T12:01:57;-0.40;99.90
65036;DHT22;51603;49.300;8.880;2024-01-15T12:04:23;-0.40;99.90
65036;DHT22;51603;49.300;8.880;2024-01-15T12:06:49;-0.40;99.90
65036;DHT22;51603;49.300;8.880;2024-01-15T12:09:14;-0.40;99.90
65036;DHT22;51603;49.300;8.880;2024-01-15T12:11:44;-0.50;99.90
65036;DHT22;51603;49.300;8.880;2024-01-15T12:14:13;-0.40;99.90
65036;DHT22;51603;49.300;8.880;2024-01-15T12:16:38;-0.40;99.90
65036;DHT22;51603;49.300;8.880;2024-01-15T12:19:04;-0.40;99.90
65036;DHT22;51603;49.300;8.880;2024-01-15T12:21:29;-0.40;99.90
65036;DHT22;51603;49.300;8.880;2024-01-15T12:23:56;-0.40;99.90
65036;DHT22;51603;49.300;8.880;2024-01-15T12:26:21;-0.40;99.90
65036;DHT22;51603;49.300;8.880;2024-01-15T12:28:50;-0.30;99.90
65036;DHT22;51603;49.300;8.880;2024-01-15T12:31:16;-0.30;99.90
65036;DHT22;51603;49.300;8.880;2024-01-15T12:33:42;-0.30;99.90
65036;DHT22;51603;49.300;8.880;2024-01-15T12:36:07;-0.30;99.90
65036;DHT22;51603;49.300;8.880;2024-01-15T12:38:33;-0.30;99.90
65036;DHT22;51603;49.300;8.880;2024-01-15T12:41:00;-0.30;99.90
65036;DHT22;51603;49.300;8.880;2024-01-15T12:43:26;-0.30;99.90
65036;DHT22;51603;49.300;8.880;2024-01-15T12:45:52;-0.20;99.90
65036;DHT22;51603;49.300;8.880;2024-01-15T12:48:18;-0.20;99.90
65036;DHT22;51603;49.300;8.880;2024-01-15T12:50:43;-0.20;99.90
65036;DHT22;51603;49.300;8.880;2024-01-15T12:53:10;-0.20;99.90
65036;DHT22;51603;49.300;8.880;2024-01-15T12:55:36;-0.20;99.90
65036;DHT22;51603;49.300;8.880;2024-01-15T12:58:02;-0.20;99.90
65036;DHT22;51603;49.300;8.880;2024-01-15T13:00:27;-0.20;99.90
65036;DHT22;51603;49.300;8.880;2024-01-15T13:02:53;-0.10;99.90
65036;DHT22;51603;49.300;8.880;2024-01-15T13:05:20;-0.10;99.90
65036;DHT22;51603;49.300;8.880;2024-01-15T13:07:46;-0.10;99.90
65036;DHT22;51603;49.300;8.880;2024-01-15T13:10:12;-0.10;99.90
65036;DHT22;51603;49.300;8.880;2024-01-15T13:12:37;-0.10;99.90
65036;DHT22;51603;49.300;8.880;2024-01-15T13:15:03;-0.10;99.90
65036;DHT22;51603;49.300;8.880;2024-01-15T13:17:29;0.00;99.90
65036;DHT22;51603;49.300;8.880;2024-01-15T13:19:54;0.00;99.90
65036;DHT22;51603;49.300;8.880;2024-01-15T13:22:20;0.00;99.90
65036;DHT22;51603;49.300;8.880;2024-01-15T13:24:45;0.00;99.90
65036;DHT22;51603;49.300;8.880;2024-01-15T13:27:11;0.00;99.90
65036;DHT22;51603;49.300;8.880;2024-01-15T13:29:37;0.00;99.90
65036;DHT22;51603;49.300;8.880;2024-01-15T13:32:03;0.00;99.90
65036;DHT22;51603;49.300;8.880;2024-01-15T13:34:30;0.10;99.90
65036;DHT22;51603;49.300;8.880;2024-01-15T13:36:55;0.10;99.90
65036;DHT22;51603;49.300;8.880;2024-01-15T13:39:21;0.10;99.90
65036;DHT22;51603;49.300;8.880;2024-01-15T13:41:47;0.10;99.90
65036;DHT22;51603;49.300;8.880;2024-01-15T13:44:12;0.10;99.90
65036;DHT22;51603;49.300;8.880;2024-01-15T13:46:38;0.10;99.90
65036;DHT22;51603;49.300;8.880;2024-01-15T13:49:04;0.20;99.90
65036;DHT22;51603;49.300;8.880;2024-01-15T13:51:31;0.20;99.90
65036;DHT22;51603;49.300;8.880;2024-01-15T13:53:57;0.20;99.90
65036;DHT22;51603;49.300;8.880;2024-01-15T13:56:23;0.20;99.90
65036;DHT22;51603;49.300;8.880;2024-01-15T13:58:48;0.20;99.90
65036;DHT22;51603;49.300;8.880;2024-01-15T14:01:15;0.20;99.90
65036;DHT22;51603;49.300;8.880;2024-01-15T14:03:41;0.30;99.90
65036;DHT22;51603;49.300;8.880;2024-01-15T14:06:06;0.30;99.90
65036;DHT22;51603;49.300;8.880;2024-01-15T14:08:35;0.30;99.90
65036;DHT22;51603;49.300;8.880;2024-01-15T14:11:02;0.40;99.90
65036;DHT22;51603;49.300;8.880;2024-01-15T14:13:28;0.40;99.90
65036;DHT22;51603;49.300;8.880;2024-01-15T14:15:53;0.30;99.90
65036;DHT22;51603;49.300;8.880;2024-01-15T14:18:19;0.40;99.90
65036;DHT22;51603;49.300;8.880;2024-01-15T14:20:45;0.40;99.90
65036;DHT22;51603;49.300;8.880;2024-01-15T14:23:10;0.40;99.90
65036;DHT22;51603;49.300;8.880;2024-01-15T14:25:36;0.40;99.90
65036;DHT22;51603;49.300;8.880;2024-01-15T14:28:01;0.30;99.90
65036;DHT22;51603;49.300;8.880;2024-01-15T14:30:27;0.30;99.90
65036;DHT22;51603;49.300;8.880;2024-01-15T14:32:52;0.30;99.90
65036;DHT22;51603;49.300;8.880;2024-01-15T14:35:18;0.40;99.90
65036;DHT22;51603;49.300;8.880;2024-01-15T14:37:44;0.40;99.90
65036;DHT22;51603;49.300;8.880;2024-01-15T14:40:09;0.40;99.90
65036;DHT22;51603;49.300;8.880;2024-01-15T14:42:41;0.40;99.90
65036;DHT22;51603;49.300;8.880;2024-01-15T14:45:07;0.40;99.90
65036;DHT22;51603;49.300;8.880;2024-01-15T14:47:39;0.40;99.90
65036;DHT22;51603;49.300;8.880;2024-01-15T14:50:08;0.50;99.90
65036;DHT22;51603;49.300;8.880;2024-01-15T14:52:35;0.50;99.90
65036;DHT22;51603;49.300;8.880;2024-01-15T14:55:01;0.50;99.90
65036;DHT22;51603;49.300;8.880;2024-01-15T14:57:27;0.50;99.90
65036;DHT22;51603;49.300;8.880;2024-01-15T14:59:52;0.50;99.90
65036;DHT22;51603;49.300;8.880;2024-01-15T15:02:19;0.50;99.90
65036;DHT22;51603;49.300;8.880;2024-01-15T15:04:44;0.50;99.90
65036;DHT22;51603;49.300;8.880;2024-01-15T15:07:10;0.40;99.90
65036;DHT22;51603;49.300;8.880;2024-01-15T15:09:36;0.40;99.90
65036;DHT22;51603;49.300;8.880;2024-01-15T15:12:03;0.40;99.90
65036;DHT22;51603;49.300;8.880;2024-01-15T15:14:30;0.40;99.90
65036;DHT22;51603;49.300;8.880;2024-01-15T15:16:57;0.40;99.90
65036;DHT22;51603;49.300;8.880;2024-01-15T15:19:23;0.40;99.90
65036;DHT22;51603;49.300;8.880;2024-01-15T15:21:48;0.40;99.90
65036;DHT22;51603;49.300;8.880;2024-01-15T15:24:14;0.40;99.90
65036;DHT22;51603;49.300;8.880;2024-01-15T15:26:39;0.40;99.90
65036;DHT22;51603;49.300;8.880;2024-01-15T15:29:05;0.40;99.90
65036;DHT22;51603;49.300;8.880;2024-01-15T15:31:30;0.50;99.90
65036;DHT22;51603;49.300;8.880;2024-01-15T15:33:56;0.40;99.90
65036;DHT22;51603;49.300;8.880;2024-01-15T15:36:22;0.40;99.90
65036;DHT22;51603;49.300;8.880;2024-01-15T15:38:48;0.40;99.90
65036;DHT22;51603;49.300;8.880;2024-01-15T15:41:14;0.40;99.90
65036;DHT22;51603;49.300;8.880;2024-01-15T15:43:40;0.40;99.90
65036;DHT22;51603;49.300;8.880;2024-01-15T15:46:05;0.40;99.90
65036;DHT22;51603;49.300;8.880;2024-01-15T15:48:32;0.40;99.90
65036;DHT22;51603;49.300;8.880;2024-01-15T15:50:57;0.40;99.90
65036;DHT22;51603;49.300;8.880;2024-01-15T15:53:25;0.40;99.90